sensor_id;sensor_type;location;lat;lon;timestamp;P1;durP1;ratioP1;P2;durP2;ratioP2
67979;SDS011;54760;47.490;19.030;2023-04-16T00:01:47;7.50;;;4.37;;
67979;SDS011;54760;47.490;19.030;2023-04-16T00:04:13;6.10;;;5.15;;
67979;SDS011;54760;47.490;19.030;2023-04-16T00:06:38;5.22;;;4.47;;
67979;SDS011;54760;47.490;19.030;2023-04-16T00:09:04;5.45;;;4.00;;
67979;SDS011;54760;47.490;19.030;2023-04-16T00:11:29;6.12;;;4.30;;
67979;SDS011;54760;47.490;19.030;2023-04-16T00:13:55;6.80;;;4.20;;
67979;SDS011;54760;47.490;19.030;2023-04-16T00:16:20;5.60;;;3.87;;
67979;SDS011;54760;47.490;19.030;2023-04-16T00:18:46;4.62;;;3.58;;
67979;SDS011;54760;47.490;19.030;2023-04-16T00:21:11;5.22;;;3.95;;
67979;SDS011;54760;47.490;19.030;2023-04-16T00:23:37;4.93;;;3.53;;
67979;SDS011;54760;47.490;19.030;2023-04-16T00:26:02;5.95;;;3.62;;
67979;SDS011;54760;47.490;19.030;2023-04-16T00:28:28;5.10;;;3.90;;
67979;SDS011;54760;47.490;19.030;2023-04-16T00:30:54;4.70;;;3.60;;
67979;SDS011;54760;47.490;19.030;2023-04-16T00:33:19;6.40;;;4.03;;
67979;SDS011;54760;47.490;19.030;2023-04-16T00:35:45;4.40;;;3.67;;
67979;SDS011;54760;47.490;19.030;2023-04-16T00:38:11;5.15;;;3.50;;
67979;SDS011;54760;47.490;19.030;2023-04-16T00:40:37;4.25;;;3.58;;
67979;SDS011;54760;47.490;19.030;2023-04-16T00:43:03;4.95;;;3.55;;
67979;SDS011;54760;47.490;19.030;2023-04-16T00:45:28;3.95;;;3.53;;
67979;SDS011;54760;47.490;19.030;2023-04-16T00:47:54;6.25;;;4.22;;
67979;SDS011;54760;47.490;19.030;2023-04-16T00:50:20;8.10;;;3.78;;
67979;SDS011;54760;47.490;19.030;2023-04-16T00:52:46;4.47;;;3.53;;
67979;SDS011;54760;47.490;19.030;2023-04-16T00:55:13;4.45;;;3.67;;
67979;SDS011;54760;47.490;19.030;2023-04-16T00:57:41;4.80;;;3.58;;
67979;SDS011;54760;47.490;19.030;2023-04-16T01:00:07;6.95;;;4.10;;
67979;SDS011;54760;47.490;19.030;2023-04-16T01:02:34;5.80;;;3.87;;
67979;SDS011;54760;47.490;19.030;2023-04-16T01:05:00;5.15;;;4.15;;
67979;SDS011;54760;47.490;19.030;2023-04-16T01:07:26;5.55;;;4.25;;
67979;SDS011;54760;47.490;19.030;2023-04-16T01:09:51;7.03;;;4.57;;
67979;SDS011;54760;47.490;19.030;2023-04-16T01:12:17;5.85;;;4.28;;
67979;SDS011;54760;47.490;19.030;2023-04-16T01:14:42;5.85;;;4.78;;
67979;SDS011;54760;47.490;19.030;2023-04-16T01:17:08;5.87;;;4.32;;
67979;SDS011;54760;47.490;19.030;2023-04-16T01:19:33;5.37;;;4.55;;
67979;SDS011;54760;47.490;19.030;2023-04-16T01:22:00;8.63;;;5.30;;
67979;SDS011;54760;47.490;19.030;2023-04-16T01:24:26;6.82;;;5.57;;
67979;SDS011;54760;47.490;19.030;2023-04-16T01:26:52;7.12;;;5.47;;
67979;SDS011;54760;47.490;19.030;2023-04-16T01:29:17;7.80;;;6.12;;
67979;SDS011;54760;47.490;19.030;2023-04-16T01:31:43;8.35;;;6.57;;
67979;SDS011;54760;47.490;19.030;2023-04-16T01:34:10;8.73;;;6.70;;
67979;SDS011;54760;47.490;19.030;2023-04-16T01:36:36;8.93;;;6.57;;
67979;SDS011;54760;47.490;19.030;2023-04-16T01:39:01;8.52;;;6.78;;
67979;SDS011;54760;47.490;19.030;2023-04-16T01:41:27;7.78;;;6.60;;
67979;SDS011;54760;47.490;19.030;2023-04-16T01:43:52;8.95;;;6.32;;
67979;SDS011;54760;47.490;19.030;2023-04-16T01:46:22;9.18;;;6.90;;
67979;SDS011;54760;47.490;19.030;2023-04-16T01:48:52;9.45;;;6.97;;
67979;SDS011;54760;47.490;19.030;2023-04-16T01:51:19;10.73;;;6.70;;
67979;SDS011;54760;47.490;19.030;2023-04-16T01:53:44;10.35;;;7.12;;
67979;SDS011;54760;47.490;19.030;2023-04-16T01:56:10;9.75;;;7.22;;
67979;SDS011;54760;47.490;19.030;2023-04-16T01:58:35;9.32;;;6.53;;
67979;SDS011;54760;47.490;19.030;2023-04-16T02:01:01;8.48;;;6.72;;
67979;SDS011;54760;47.490;19.030;2023-04-16T02:03:26;9.07;;;6.75;;
67979;SDS011;54760;47.490;19.030;2023-04-16T02:05:52;9.25;;;7.20;;
67979;SDS011;54760;47.490;19.030;2023-04-16T02:08:17;10.27;;;7.65;;
67979;SDS011;54760;47.490;19.030;2023-04-16T02:10:46;11.18;;;8.30;;
67979;SDS011;54760;47.490;19.030;2023-04-16T02:13:13;10.23;;;8.23;;
67979;SDS011;54760;47.490;19.030;2023-04-16T02:15:39;10.60;;;7.93;;
67979;SDS011;54760;47.490;19.030;2023-04-16T02:18:04;10.85;;;8.15;;
67979;SDS011;54760;47.490;19.030;2023-04-16T02:20:29;11.35;;;8.00;;
67979;SDS011;54760;47.490;19.030;2023-04-16T02:22:55;13.05;;;9.48;;
67979;SDS011;54760;47.490;19.030;2023-04-16T02:25:20;12.35;;;9.00;;
67979;SDS011;54760;47.490;19.030;2023-04-16T02:27:47;12.05;;;9.45;;
67979;SDS011;54760;47.490;19.030;2023-04-16T02:30:12;13.70;;;9.13;;
67979;SDS011;54760;47.490;19.030;2023-04-16T02:32:37;11.65;;;9.10;;
67979;SDS011;54760;47.490;19.030;2023-04-16T02:35:03;14.90;;;9.18;;
67979;SDS011;54760;47.490;19.030;2023-04-16T02:37:28;12.75;;;8.85;;
67979;SDS011;54760;47.490;19.030;2023-04-16T02:39:54;11.95;;;9.27;;
67979;SDS011;54760;47.490;19.030;2023-04-16T02:42:19;12.25;;;8.90;;
67979;SDS011;54760;47.490;19.030;2023-04-16T02:44:45;11.75;;;9.18;;
67979;SDS011;54760;47.490;19.030;2023-04-16T02:47:10;11.35;;;9.02;;
67979;SDS011;54760;47.490;19.030;2023-04-16T02:49:36;11.88;;;9.50;;
67979;SDS011;54760;47.490;19.030;2023-04-16T02:52:01;11.73;;;8.77;;
67979;SDS011;54760;47.490;19.030;2023-04-16T02:54:26;10.95;;;8.63;;
67979;SDS011;54760;47.490;19.030;2023-04-16T02:56:52;11.80;;;8.75;;
67979;SDS011;54760;47.490;19.030;2023-04-16T02:59:17;11.00;;;8.50;;
67979;SDS011;54760;47.490;19.030;2023-04-16T03:01:43;10.90;;;8.50;;
67979;SDS011;54760;47.490;19.030;2023-04-16T03:04:08;10.38;;;8.68;;
67979;SDS011;54760;47.490;19.030;2023-04-16T03:06:33;11.43;;;8.70;;
67979;SDS011;54760;47.490;19.030;2023-04-16T03:08:59;10.05;;;8.18;;
67979;SDS011;54760;47.490;19.030;2023-04-16T03:11:24;10.32;;;8.55;;
67979;SDS011;54760;47.490;19.030;2023-04-16T03:13:50;9.90;;;8.13;;
67979;SDS011;54760;47.490;19.030;2023-04-16T03:16:15;12.13;;;8.68;;
67979;SDS011;54760;47.490;19.030;2023-04-16T03:18:41;11.68;;;8.25;;
67979;SDS011;54760;47.490;19.030;2023-04-16T03:21:06;12.32;;;8.48;;
67979;SDS011;54760;47.490;19.030;2023-04-16T03:23:32;11.23;;;8.57;;
67979;SDS011;54760;47.490;19.030;2023-04-16T03:25:57;13.07;;;8.68;;
67979;SDS011;54760;47.490;19.030;2023-04-16T03:28:22;11.45;;;8.35;;
67979;SDS011;54760;47.490;19.030;2023-04-16T03:30:51;10.68;;;7.93;;
67979;SDS011;54760;47.490;19.030;2023-04-16T03:33:18;10.90;;;8.05;;
67979;SDS011;54760;47.490;19.030;2023-04-16T03:35:44;9.77;;;8.30;;
67979;SDS011;54760;47.490;19.030;2023-04-16T03:38:10;10.63;;;8.27;;
67979;SDS011;54760;47.490;19.030;2023-04-16T03:40:36;11.23;;;8.15;;
67979;SDS011;54760;47.490;19.030;2023-04-16T03:43:01;12.70;;;8.75;;
67979;SDS011;54760;47.490;19.030;2023-04-16T03:45:27;9.98;;;7.50;;
67979;SDS011;54760;47.490;19.030;2023-04-16T03:47:52;9.95;;;7.18;;
67979;SDS011;54760;47.490;19.030;2023-04-16T03:50:18;11.12;;;7.95;;
67979;SDS011;54760;47.490;19.030;2023-04-16T03:52:43;11.27;;;7.85;;
67979;SDS011;54760;47.490;19.030;2023-04-16T03:55:10;9.02;;;7.55;;
67979;SDS011;54760;47.490;19.030;2023-04-16T03:57:36;9.57;;;7.80;;
67979;SDS011;54760;47.490;19.030;2023-04-16T04:00:02;9.48;;;7.35;;
67979;SDS011;54760;47.490;19.030;2023-04-16T04:02:28;9.85;;;7.78;;
67979;SDS011;54760;47.490;19.030;2023-04-16T04:04:53;9.27;;;7.15;;
67979;SDS011;54760;47.490;19.030;2023-04-16T04:07:19;10.88;;;7.55;;
67979;SDS011;54760;47.490;19.030;2023-04-16T04:09:44;9.90;;;7.55;;
67979;SDS011;54760;47.490;19.030;2023-04-16T04:12:10;9.32;;;7.70;;
67979;SDS011;54760;47.490;19.030;2023-04-16T04:14:35;8.70;;;7.65;;
67979;SDS011;54760;47.490;19.030;2023-04-16T04:17:07;8.60;;;7.15;;
67979;SDS011;54760;47.490;19.030;2023-04-16T04:19:33;9.13;;;7.57;;
67979;SDS011;54760;47.490;19.030;2023-04-16T04:21:58;8.52;;;6.95;;
67979;SDS011;54760;47.490;19.030;2023-04-16T04:24:24;9.60;;;7.30;;
67979;SDS011;54760;47.490;19.030;2023-04-16T04:26:50;8.48;;;7.07;;
67979;SDS011;54760;47.490;19.030;2023-04-16T04:29:15;10.35;;;6.97;;
67979;SDS011;54760;47.490;19.030;2023-04-16T04:31:41;8.55;;;7.15;;
67979;SDS011;54760;47.490;19.030;2023-04-16T04:34:06;8.27;;;7.00;;
67979;SDS011;54760;47.490;19.030;2023-04-16T04:36:31;8.23;;;7.20;;
67979;SDS011;54760;47.490;19.030;2023-04-16T04:38:57;9.40;;;7.10;;
67979;SDS011;54760;47.490;19.030;2023-04-16T04:41:23;8.90;;;7.10;;
67979;SDS011;54760;47.490;19.030;2023-04-16T04:43:48;9.32;;;7.10;;
67979;SDS011;54760;47.490;19.030;2023-04-16T04:46:14;10.07;;;7.55;;
67979;SDS011;54760;47.490;19.030;2023-04-16T04:48:39;9.40;;;6.82;;
67979;SDS011;54760;47.490;19.030;2023-04-16T04:51:05;6.82;;;6.10;;
67979;SDS011;54760;47.490;19.030;2023-04-16T04:53:30;8.30;;;6.45;;
67979;SDS011;54760;47.490;19.030;2023-04-16T04:55:55;9.18;;;6.57;;
67979;SDS011;54760;47.490;19.030;2023-04-16T04:58:21;10.32;;;6.97;;
67979;SDS011;54760;47.490;19.030;2023-04-16T05:00:46;9.18;;;6.82;;
67979;SDS011;54760;47.490;19.030;2023-04-16T05:03:12;8.95;;;7.25;;
67979;SDS011;54760;47.490;19.030;2023-04-16T05:05:44;9.43;;;6.62;;
67979;SDS011;54760;47.490;19.030;2023-04-16T05:08:09;8.43;;;6.93;;
67979;SDS011;54760;47.490;19.030;2023-04-16T05:10:34;13.32;;;6.80;;
67979;SDS011;54760;47.490;19.030;2023-04-16T05:13:00;9.20;;;6.95;;
67979;SDS011;54760;47.490;19.030;2023-04-16T05:15:25;7.87;;;6.45;;
67979;SDS011;54760;47.490;19.030;2023-04-16T05:17:51;7.87;;;6.75;;
67979;SDS011;54760;47.490;19.030;2023-04-16T05:20:16;8.77;;;6.47;;
67979;SDS011;54760;47.490;19.030;2023-04-16T05:22:42;8.75;;;6.97;;
67979;SDS011;54760;47.490;19.030;2023-04-16T05:25:07;10.15;;;6.55;;
67979;SDS011;54760;47.490;19.030;2023-04-16T05:27:33;9.60;;;7.03;;
67979;SDS011;54760;47.490;19.030;2023-04-16T05:29:58;8.60;;;6.93;;
67979;SDS011;54760;47.490;19.030;2023-04-16T05:32:24;10.52;;;7.10;;
67979;SDS011;54760;47.490;19.030;2023-04-16T05:34:50;9.18;;;6.75;;
67979;SDS011;54760;47.490;19.030;2023-04-16T05:37:16;8.15;;;6.90;;
67979;SDS011;54760;47.490;19.030;2023-04-16T05:39:41;9.32;;;6.87;;
67979;SDS011;54760;47.490;19.030;2023-04-16T05:42:07;10.45;;;6.85;;
67979;SDS011;54760;47.490;19.030;2023-04-16T05:44:32;10.98;;;7.50;;
67979;SDS011;54760;47.490;19.030;2023-04-16T05:46:57;9.98;;;7.25;;
67979;SDS011;54760;47.490;19.030;2023-04-16T05:49:23;8.30;;;6.82;;
67979;SDS011;54760;47.490;19.030;2023-04-16T05:51:48;8.43;;;6.55;;
67979;SDS011;54760;47.490;19.030;2023-04-16T05:54:14;9.50;;;7.32;;
67979;SDS011;54760;47.490;19.030;2023-04-16T05:56:39;7.70;;;6.55;;
67979;SDS011;54760;47.490;19.030;2023-04-16T05:59:05;6.95;;;5.90;;
67979;SDS011;54760;47.490;19.030;2023-04-16T06:01:31;7.68;;;6.55;;
67979;SDS011;54760;47.490;19.030;2023-04-16T06:03:56;7.75;;;6.65;;
67979;SDS011;54760;47.490;19.030;2023-04-16T06:06:22;8.02;;;6.47;;
67979;SDS011;54760;47.490;19.030;2023-04-16T06:08:47;8.65;;;7.20;;
67979;SDS011;54760;47.490;19.030;2023-04-16T06:11:13;8.13;;;6.85;;
67979;SDS011;54760;47.490;19.030;2023-04-16T06:13:38;10.30;;;6.95;;
67979;SDS011;54760;47.490;19.030;2023-04-16T06:16:04;9.30;;;7.00;;
67979;SDS011;54760;47.490;19.030;2023-04-16T06:18:30;9.52;;;6.82;;
67979;SDS011;54760;47.490;19.030;2023-04-16T06:20:55;7.70;;;6.70;;
67979;SDS011;54760;47.490;19.030;2023-04-16T06:23:22;9.57;;;7.12;;
67979;SDS011;54760;47.490;19.030;2023-04-16T06:25:48;10.20;;;7.25;;
67979;SDS011;54760;47.490;19.030;2023-04-16T06:28:13;8.25;;;6.87;;
67979;SDS011;54760;47.490;19.030;2023-04-16T06:30:39;7.68;;;6.37;;
67979;SDS011;54760;47.490;19.030;2023-04-16T06:33:04;12.20;;;7.43;;
67979;SDS011;54760;47.490;19.030;2023-04-16T06:35:30;8.63;;;6.68;;
67979;SDS011;54760;47.490;19.030;2023-04-16T06:37:55;8.73;;;6.12;;
67979;SDS011;54760;47.490;19.030;2023-04-16T06:40:21;7.30;;;5.65;;
67979;SDS011;54760;47.490;19.030;2023-04-16T06:42:46;7.95;;;6.53;;
67979;SDS011;54760;47.490;19.030;2023-04-16T06:45:12;8.98;;;6.37;;
67979;SDS011;54760;47.490;19.030;2023-04-16T06:47:37;7.65;;;6.07;;
67979;SDS011;54760;47.490;19.030;2023-04-16T06:50:03;8.65;;;6.12;;
67979;SDS011;54760;47.490;19.030;2023-04-16T06:52:28;7.55;;;5.93;;
67979;SDS011;54760;47.490;19.030;2023-04-16T06:54:54;7.95;;;5.30;;
67979;SDS011;54760;47.490;19.030;2023-04-16T06:57:20;8.38;;;5.62;;
67979;SDS011;54760;47.490;19.030;2023-04-16T06:59:45;7.93;;;5.57;;
67979;SDS011;54760;47.490;19.030;2023-04-16T07:02:11;7.00;;;5.25;;
67979;SDS011;54760;47.490;19.030;2023-04-16T07:04:36;6.28;;;5.25;;
67979;SDS011;54760;47.490;19.030;2023-04-16T07:07:02;9.00;;;4.78;;
67979;SDS011;54760;47.490;19.030;2023-04-16T07:09:27;6.30;;;4.65;;
67979;SDS011;54760;47.490;19.030;2023-04-16T07:11:53;7.75;;;4.68;;
67979;SDS011;54760;47.490;19.030;2023-04-16T07:14:18;5.47;;;4.50;;
67979;SDS011;54760;47.490;19.030;2023-04-16T07:16:44;6.75;;;4.20;;
67979;SDS011;54760;47.490;19.030;2023-04-16T07:19:09;6.62;;;4.55;;
67979;SDS011;54760;47.490;19.030;2023-04-16T07:21:35;4.87;;;4.37;;
67979;SDS011;54760;47.490;19.030;2023-04-16T07:24:01;4.70;;;3.90;;
67979;SDS011;54760;47.490;19.030;2023-04-16T07:26:26;5.15;;;4.40;;
67979;SDS011;54760;47.490;19.030;2023-04-16T07:28:52;6.45;;;4.87;;
67979;SDS011;54760;47.490;19.030;2023-04-16T07:31:17;5.57;;;4.37;;
67979;SDS011;54760;47.490;19.030;2023-04-16T07:33:43;5.35;;;4.37;;
67979;SDS011;54760;47.490;19.030;2023-04-16T07:36:08;5.32;;;4.40;;
67979;SDS011;54760;47.490;19.030;2023-04-16T07:38:33;6.68;;;3.90;;
67979;SDS011;54760;47.490;19.030;2023-04-16T07:40:59;7.72;;;4.05;;
67979;SDS011;54760;47.490;19.030;2023-04-16T07:43:25;4.20;;;3.35;;
67979;SDS011;54760;47.490;19.030;2023-04-16T07:45:50;4.78;;;3.87;;
67979;SDS011;54760;47.490;19.030;2023-04-16T07:48:16;4.37;;;3.47;;
67979;SDS011;54760;47.490;19.030;2023-04-16T07:50:41;5.70;;;4.00;;
67979;SDS011;54760;47.490;19.030;2023-04-16T07:53:10;6.85;;;4.30;;
67979;SDS011;54760;47.490;19.030;2023-04-16T07:55:35;6.12;;;4.18;;
67979;SDS011;54760;47.490;19.030;2023-04-16T07:58:01;5.53;;;4.07;;
67979;SDS011;54760;47.490;19.030;2023-04-16T08:00:31;5.75;;;3.80;;
67979;SDS011;54760;47.490;19.030;2023-04-16T08:02:56;5.47;;;4.35;;
67979;SDS011;54760;47.490;19.030;2023-04-16T08:05:22;5.72;;;4.40;;
67979;SDS011;54760;47.490;19.030;2023-04-16T08:07:47;5.07;;;4.25;;
67979;SDS011;54760;47.490;19.030;2023-04-16T08:10:13;4.87;;;4.10;;
67979;SDS011;54760;47.490;19.030;2023-04-16T08:12:38;7.43;;;4.00;;
67979;SDS011;54760;47.490;19.030;2023-04-16T08:15:04;5.90;;;3.90;;
67979;SDS011;54760;47.490;19.030;2023-04-16T08:17:30;5.50;;;3.60;;
67979;SDS011;54760;47.490;19.030;2023-04-16T08:19:58;5.75;;;3.70;;
67979;SDS011;54760;47.490;19.030;2023-04-16T08:22:23;5.78;;;3.50;;
67979;SDS011;54760;47.490;19.030;2023-04-16T08:24:50;5.47;;;3.45;;
67979;SDS011;54760;47.490;19.030;2023-04-16T08:27:16;3.72;;;3.30;;
67979;SDS011;54760;47.490;19.030;2023-04-16T08:29:41;6.03;;;3.05;;
67979;SDS011;54760;47.490;19.030;2023-04-16T08:32:06;5.93;;;3.17;;
67979;SDS011;54760;47.490;19.030;2023-04-16T08:34:34;3.80;;;3.12;;
67979;SDS011;54760;47.490;19.030;2023-04-16T08:37:00;3.90;;;3.12;;
67979;SDS011;54760;47.490;19.030;2023-04-16T08:39:25;4.82;;;3.30;;
67979;SDS011;54760;47.490;19.030;2023-04-16T08:41:51;5.05;;;3.35;;
67979;SDS011;54760;47.490;19.030;2023-04-16T08:44:25;5.65;;;3.62;;
67979;SDS011;54760;47.490;19.030;2023-04-16T08:46:53;4.65;;;3.30;;
67979;SDS011;54760;47.490;19.030;2023-04-16T08:49:23;5.35;;;3.30;;
67979;SDS011;54760;47.490;19.030;2023-04-16T08:51:50;4.32;;;3.30;;
67979;SDS011;54760;47.490;19.030;2023-04-16T08:56:58;5.78;;;3.55;;
67979;SDS011;54760;47.490;19.030;2023-04-16T08:59:25;4.35;;;3.30;;
67979;SDS011;54760;47.490;19.030;2023-04-16T09:01:52;5.90;;;3.33;;
67979;SDS011;54760;47.490;19.030;2023-04-16T09:04:21;4.47;;;3.03;;
67979;SDS011;54760;47.490;19.030;2023-04-16T09:06:49;4.12;;;3.20;;
67979;SDS011;54760;47.490;19.030;2023-04-16T09:09:16;5.32;;;3.10;;
67979;SDS011;54760;47.490;19.030;2023-04-16T09:11:44;4.43;;;3.42;;
67979;SDS011;54760;47.490;19.030;2023-04-16T09:14:09;5.80;;;2.83;;
67979;SDS011;54760;47.490;19.030;2023-04-16T09:16:36;5.07;;;2.80;;
67979;SDS011;54760;47.490;19.030;2023-04-16T09:19:01;4.12;;;2.67;;
67979;SDS011;54760;47.490;19.030;2023-04-16T09:21:27;3.62;;;2.97;;
67979;SDS011;54760;47.490;19.030;2023-04-16T09:23:53;5.80;;;3.25;;
67979;SDS011;54760;47.490;19.030;2023-04-16T09:26:19;5.32;;;3.15;;
67979;SDS011;54760;47.490;19.030;2023-04-16T09:28:47;5.37;;;2.70;;
67979;SDS011;54760;47.490;19.030;2023-04-16T09:31:13;4.82;;;2.53;;
67979;SDS011;54760;47.490;19.030;2023-04-16T09:33:40;3.67;;;2.85;;
67979;SDS011;54760;47.490;19.030;2023-04-16T09:36:07;4.78;;;2.87;;
67979;SDS011;54760;47.490;19.030;2023-04-16T09:38:45;3.05;;;2.53;;
67979;SDS011;54760;47.490;19.030;2023-04-16T09:41:12;4.07;;;2.55;;
67979;SDS011;54760;47.490;19.030;2023-04-16T09:43:40;3.90;;;2.80;;
67979;SDS011;54760;47.490;19.030;2023-04-16T09:46:05;3.17;;;2.70;;
67979;SDS011;54760;47.490;19.030;2023-04-16T09:48:35;2.92;;;2.55;;
67979;SDS011;54760;47.490;19.030;2023-04-16T09:51:00;2.87;;;2.40;;
67979;SDS011;54760;47.490;19.030;2023-04-16T09:53:26;3.85;;;2.97;;
67979;SDS011;54760;47.490;19.030;2023-04-16T09:56:04;4.05;;;2.62;;
67979;SDS011;54760;47.490;19.030;2023-04-16T09:58:31;2.95;;;2.35;;
67979;SDS011;54760;47.490;19.030;2023-04-16T10:03:32;3.97;;;2.90;;
67979;SDS011;54760;47.490;19.030;2023-04-16T10:06:08;6.72;;;2.90;;
67979;SDS011;54760;47.490;19.030;2023-04-16T10:08:42;3.35;;;2.55;;
67979;SDS011;54760;47.490;19.030;2023-04-16T10:11:10;3.70;;;2.50;;
67979;SDS011;54760;47.490;19.030;2023-04-16T10:13:36;3.08;;;2.62;;
67979;SDS011;54760;47.490;19.030;2023-04-16T10:16:01;3.83;;;2.42;;
67979;SDS011;54760;47.490;19.030;2023-04-16T10:18:27;3.95;;;2.62;;
67979;SDS011;54760;47.490;19.030;2023-04-16T10:20:53;3.92;;;3.05;;
67979;SDS011;54760;47.490;19.030;2023-04-16T10:23:20;4.30;;;2.40;;
67979;SDS011;54760;47.490;19.030;2023-04-16T10:25:46;4.65;;;2.53;;
67979;SDS011;54760;47.490;19.030;2023-04-16T10:28:13;5.60;;;2.58;;
67979;SDS011;54760;47.490;19.030;2023-04-16T10:30:39;3.35;;;2.50;;
67979;SDS011;54760;47.490;19.030;2023-04-16T10:33:06;3.87;;;2.70;;
67979;SDS011;54760;47.490;19.030;2023-04-16T10:35:37;3.75;;;2.50;;
67979;SDS011;54760;47.490;19.030;2023-04-16T10:41:00;3.30;;;2.67;;
67979;SDS011;54760;47.490;19.030;2023-04-16T10:43:28;4.25;;;2.40;;
67979;SDS011;54760;47.490;19.030;2023-04-16T10:45:55;7.55;;;3.10;;
67979;SDS011;54760;47.490;19.030;2023-04-16T10:48:22;3.37;;;2.60;;
67979;SDS011;54760;47.490;19.030;2023-04-16T10:50:54;6.07;;;2.70;;
67979;SDS011;54760;47.490;19.030;2023-04-16T10:53:22;3.22;;;2.33;;
67979;SDS011;54760;47.490;19.030;2023-04-16T10:58:26;3.30;;;2.03;;
67979;SDS011;54760;47.490;19.030;2023-04-16T11:00:57;4.53;;;2.40;;
67979;SDS011;54760;47.490;19.030;2023-04-16T11:03:23;2.37;;;2.00;;
67979;SDS011;54760;47.490;19.030;2023-04-16T11:05:49;2.28;;;1.98;;
67979;SDS011;54760;47.490;19.030;2023-04-16T11:08:14;3.58;;;1.90;;
67979;SDS011;54760;47.490;19.030;2023-04-16T11:10:40;4.15;;;2.22;;
67979;SDS011;54760;47.490;19.030;2023-04-16T11:13:06;3.28;;;1.98;;
67979;SDS011;54760;47.490;19.030;2023-04-16T11:15:33;3.60;;;2.03;;
67979;SDS011;54760;47.490;19.030;2023-04-16T11:17:59;4.82;;;1.92;;
67979;SDS011;54760;47.490;19.030;2023-04-16T11:20:25;3.10;;;1.95;;
67979;SDS011;54760;47.490;19.030;2023-04-16T11:22:53;3.08;;;2.00;;
67979;SDS011;54760;47.490;19.030;2023-04-16T11:25:20;5.85;;;1.92;;
67979;SDS011;54760;47.490;19.030;2023-04-16T11:27:47;2.72;;;1.80;;
67979;SDS011;54760;47.490;19.030;2023-04-16T11:30:13;4.18;;;1.73;;
67979;SDS011;54760;47.490;19.030;2023-04-16T11:32:38;2.58;;;1.90;;
67979;SDS011;54760;47.490;19.030;2023-04-16T11:35:14;2.65;;;1.90;;
67979;SDS011;54760;47.490;19.030;2023-04-16T11:37:41;5.12;;;2.00;;
67979;SDS011;54760;47.490;19.030;2023-04-16T11:40:07;4.05;;;2.20;;
67979;SDS011;54760;47.490;19.030;2023-04-16T11:42:34;2.28;;;1.77;;
67979;SDS011;54760;47.490;19.030;2023-04-16T11:45:05;3.15;;;1.70;;
67979;SDS011;54760;47.490;19.030;2023-04-16T11:47:33;2.28;;;1.75;;
67979;SDS011;54760;47.490;19.030;2023-04-16T11:52:46;3.40;;;1.80;;
67979;SDS011;54760;47.490;19.030;2023-04-16T11:55:12;3.90;;;1.67;;
67979;SDS011;54760;47.490;19.030;2023-04-16T11:57:39;3.08;;;1.65;;
67979;SDS011;54760;47.490;19.030;2023-04-16T12:00:05;3.50;;;1.80;;
67979;SDS011;54760;47.490;19.030;2023-04-16T12:02:37;6.18;;;2.00;;
67979;SDS011;54760;47.490;19.030;2023-04-16T12:05:29;4.03;;;1.70;;
67979;SDS011;54760;47.490;19.030;2023-04-16T12:07:55;3.87;;;1.80;;
67979;SDS011;54760;47.490;19.030;2023-04-16T12:10:21;3.33;;;2.22;;
67979;SDS011;54760;47.490;19.030;2023-04-16T12:12:47;3.30;;;1.70;;
67979;SDS011;54760;47.490;19.030;2023-04-16T12:15:12;3.87;;;1.62;;
67979;SDS011;54760;47.490;19.030;2023-04-16T12:17:37;2.50;;;1.75;;
67979;SDS011;54760;47.490;19.030;2023-04-16T12:20:07;3.50;;;1.60;;
67979;SDS011;54760;47.490;19.030;2023-04-16T12:22:35;2.95;;;1.42;;
67979;SDS011;54760;47.490;19.030;2023-04-16T12:25:02;2.10;;;1.40;;
67979;SDS011;54760;47.490;19.030;2023-04-16T12:30:07;2.12;;;1.50;;
67979;SDS011;54760;47.490;19.030;2023-04-16T12:32:33;3.20;;;1.70;;
67979;SDS011;54760;47.490;19.030;2023-04-16T12:34:58;2.40;;;1.45;;
67979;SDS011;54760;47.490;19.030;2023-04-16T12:37:24;3.08;;;1.40;;
67979;SDS011;54760;47.490;19.030;2023-04-16T12:39:52;3.62;;;1.98;;
67979;SDS011;54760;47.490;19.030;2023-04-16T12:42:17;3.20;;;1.37;;
67979;SDS011;54760;47.490;19.030;2023-04-16T12:44:43;2.50;;;1.60;;
67979;SDS011;54760;47.490;19.030;2023-04-16T12:47:08;2.70;;;2.05;;
67979;SDS011;54760;47.490;19.030;2023-04-16T12:49:34;2.20;;;1.45;;
67979;SDS011;54760;47.490;19.030;2023-04-16T12:52:01;2.65;;;1.40;;
67979;SDS011;54760;47.490;19.030;2023-04-16T12:54:26;2.67;;;1.52;;
67979;SDS011;54760;47.490;19.030;2023-04-16T12:56:54;2.72;;;1.35;;
67979;SDS011;54760;47.490;19.030;2023-04-16T12:59:21;3.42;;;1.33;;
67979;SDS011;54760;47.490;19.030;2023-04-16T13:01:46;4.68;;;1.67;;
67979;SDS011;54760;47.490;19.030;2023-04-16T13:04:11;3.67;;;1.70;;
67979;SDS011;54760;47.490;19.030;2023-04-16T13:06:37;3.83;;;1.50;;
67979;SDS011;54760;47.490;19.030;2023-04-16T13:09:02;1.80;;;1.20;;
67979;SDS011;54760;47.490;19.030;2023-04-16T13:11:29;1.90;;;1.27;;
67979;SDS011;54760;47.490;19.030;2023-04-16T13:13:54;3.37;;;1.40;;
67979;SDS011;54760;47.490;19.030;2023-04-16T13:16:19;3.20;;;1.40;;
67979;SDS011;54760;47.490;19.030;2023-04-16T13:18:45;2.78;;;1.65;;
67979;SDS011;54760;47.490;19.030;2023-04-16T13:21:10;3.03;;;1.35;;
67979;SDS011;54760;47.490;19.030;2023-04-16T13:23:36;2.30;;;1.37;;
67979;SDS011;54760;47.490;19.030;2023-04-16T13:26:01;2.28;;;1.40;;
67979;SDS011;54760;47.490;19.030;2023-04-16T13:28:27;3.70;;;1.40;;
67979;SDS011;54760;47.490;19.030;2023-04-16T13:30:52;1.87;;;1.25;;
67979;SDS011;54760;47.490;19.030;2023-04-16T13:33:18;4.62;;;1.37;;
67979;SDS011;54760;47.490;19.030;2023-04-16T13:35:45;2.72;;;1.25;;
67979;SDS011;54760;47.490;19.030;2023-04-16T13:38:12;3.17;;;1.40;;
67979;SDS011;54760;47.490;19.030;2023-04-16T13:40:37;3.47;;;1.33;;
67979;SDS011;54760;47.490;19.030;2023-04-16T13:43:03;1.77;;;1.30;;
67979;SDS011;54760;47.490;19.030;2023-04-16T13:45:28;2.20;;;1.45;;
67979;SDS011;54760;47.490;19.030;2023-04-16T13:47:54;1.83;;;1.37;;
67979;SDS011;54760;47.490;19.030;2023-04-16T13:50:20;2.85;;;1.33;;
67979;SDS011;54760;47.490;19.030;2023-04-16T13:52:45;2.80;;;1.48;;
67979;SDS011;54760;47.490;19.030;2023-04-16T13:55:11;2.78;;;1.40;;
67979;SDS011;54760;47.490;19.030;2023-04-16T13:57:38;2.53;;;1.37;;
67979;SDS011;54760;47.490;19.030;2023-04-16T14:00:05;2.17;;;1.35;;
67979;SDS011;54760;47.490;19.030;2023-04-16T14:02:32;2.25;;;1.50;;
67979;SDS011;54760;47.490;19.030;2023-04-16T14:04:57;4.28;;;1.50;;
67979;SDS011;54760;47.490;19.030;2023-04-16T14:07:23;2.28;;;1.35;;
67979;SDS011;54760;47.490;19.030;2023-04-16T14:09:51;3.45;;;1.40;;
67979;SDS011;54760;47.490;19.030;2023-04-16T14:12:17;2.17;;;1.40;;
67979;SDS011;54760;47.490;19.030;2023-04-16T14:14:42;3.12;;;1.48;;
67979;SDS011;54760;47.490;19.030;2023-04-16T14:17:08;2.33;;;1.30;;
67979;SDS011;54760;47.490;19.030;2023-04-16T14:19:33;1.77;;;1.25;;
67979;SDS011;54760;47.490;19.030;2023-04-16T14:21:59;2.87;;;1.50;;
67979;SDS011;54760;47.490;19.030;2023-04-16T14:24:24;3.80;;;1.30;;
67979;SDS011;54760;47.490;19.030;2023-04-16T14:26:50;2.50;;;1.37;;
67979;SDS011;54760;47.490;19.030;2023-04-16T14:29:15;2.30;;;1.40;;
67979;SDS011;54760;47.490;19.030;2023-04-16T14:31:40;5.12;;;1.77;;
67979;SDS011;54760;47.490;19.030;2023-04-16T14:34:06;1.77;;;1.30;;
67979;SDS011;54760;47.490;19.030;2023-04-16T14:36:31;3.58;;;1.37;;
67979;SDS011;54760;47.490;19.030;2023-04-16T14:38:57;3.75;;;1.45;;
67979;SDS011;54760;47.490;19.030;2023-04-16T14:41:22;2.83;;;1.60;;
67979;SDS011;54760;47.490;19.030;2023-04-16T14:43:48;4.82;;;1.40;;